Time;durP1;ratioP1;P1;durP2;ratioP2;P2;SDS_P1;SDS_P2;PMS_P1;PMS_P2;Temp;Humidity;BMP_temperature;BMP_pressure;BME280_temperature;BME280_humidity;BME280_pressure;Samples;Min_cycle;Max_cycle;Signal;HPM_P1;HPM_P2
2023/04/15 00:00:15;;;;;;;4.22;0.93;;;;;;;;;;1048014;28;20119;-24
2023/04/15 00:00:46;;;;;;;13.95;4.28;;;;;;;;;;1048032;28;20021;-22
2023/04/15 00:01:18;;;;;;;17.60;4.20;;;;;;;;;;1047790;28;20020;-23
2023/04/15 00:01:48;;;;;;;5.55;1.88;;;;;;;;;;1047915;28;20480;-23
2023/04/15 00:02:19;;;;;;;2.83;1.63;;;;;;;;;;1048328;28;20025;-23
2023/04/15 00:02:49;;;;;;;4.93;1.48;;;;;;;;;;1049029;28;20032;-23
2023/04/15 00:03:19;;;;;;;10.90;2.25;;;;;;;;;;1047942;28;20016;-23
2023/04/15 00:03:53;;;;;;;8.77;2.33;;;;;;;;;;1047819;28;20024;-23
2023/04/15 00:04:24;;;;;;;8.77;3.28;;;;;;;;;;1046847;28;20115;-21
2023/04/15 00:04:54;;;;;;;4.78;2.70;;;;;;;;;;1046302;28;20029;-20
2023/04/15 00:05:25;;;;;;;8.85;3.08;;;;;;;;;;1047423;28;20039;-21
2023/04/15 00:05:56;;;;;;;8.63;2.72;;;;;;;;;;1047716;28;20111;-22
2023/04/15 00:06:27;;;;;;;3.92;1.35;;;;;;;;;;1047068;28;20074;-20
2023/04/15 00:06:58;;;;;;;3.58;2.25;;;;;;;;;;1047705;28;20392;-23
2023/04/15 00:07:28;;;;;;;3.92;2.58;;;;;;;;;;1047471;28;20036;-21
2023/04/15 00:08:00;;;;;;;7.32;2.50;;;;;;;;;;1047453;28;20111;-22
2023/04/15 00:08:30;;;;;;;14.45;3.05;;;;;;;;;;1047892;28;20062;-24
2023/04/15 00:09:01;;;;;;;2.13;0.98;;;;;;;;;;1048056;28;20030;-24
2023/04/15 00:09:31;;;;;;;3.15;2.25;;;;;;;;;;1048147;28;20055;-23
2023/04/15 00:10:03;;;;;;;11.57;4.18;;;;;;;;;;1047802;28;20598;-24
2023/04/15 00:10:33;;;;;;;3.53;2.22;;;;;;;;;;1047302;28;20091;-22
2023/04/15 00:11:04;;;;;;;13.70;3.05;;;;;;;;;;1047451;28;20082;-19
2023/04/15 00:11:35;;;;;;;9.00;2.33;;;;;;;;;;1047809;28;20090;-24
2023/04/15 00:12:05;;;;;;;9.55;3.22;;;;;;;;;;1047934;28;20499;-21
2023/04/15 00:12:36;;;;;;;15.10;3.92;;;;;;;;;;1043403;28;20572;-24
2023/04/15 00:13:06;;;;;;;5.05;1.77;;;;;;;;;;1043778;28;20024;-22
2023/04/15 00:13:38;;;;;;;4.20;2.40;;;;;;;;;;1043262;28;20431;-23
2023/04/15 00:14:08;;;;;;;5.40;1.98;;;;;;;;;;1043993;28;20607;-24
2023/04/15 00:14:39;;;;;;;1.75;1.55;;;;;;;;;;1048079;28;20134;-24
2023/04/15 00:15:11;;;;;;;10.10;4.90;;;;;;;;;;1047998;28;20135;-23
2023/04/15 00:15:42;;;;;;;10.15;4.22;;;;;;;;;;1047890;28;20028;-22
2023/04/15 00:16:12;;;;;;;3.55;2.28;;;;;;;;;;1048163;28;20052;-23
2023/04/15 00:16:42;;;;;;;23.08;3.67;;;;;;;;;;1047383;28;20020;-22
2023/04/15 00:17:13;;;;;;;3.40;2.15;;;;;;;;;;1047423;28;20016;-23
2023/04/15 00:17:43;;;;;;;5.35;1.50;;;;;;;;;;1048046;28;20032;-23
2023/04/15 00:18:14;;;;;;;4.85;2.83;;;;;;;;;;1048238;28;20024;-20
2023/04/15 00:18:44;;;;;;;22.63;2.05;;;;;;;;;;1047986;28;20024;-21
2023/04/15 00:19:15;;;;;;;3.75;1.85;;;;;;;;;;1047853;28;20024;-23
2023/04/15 00:19:45;;;;;;;4.00;1.63;;;;;;;;;;1047665;28;20495;-21
2023/04/15 00:20:16;;;;;;;5.15;3.03;;;;;;;;;;1047413;28;20025;-23
2023/04/15 00:20:46;;;;;;;2.15;1.85;;;;;;;;;;1047809;28;20435;-21
2023/04/15 00:21:17;;;;;;;18.77;2.30;;;;;;;;;;1047977;28;20052;-21
2023/04/15 00:21:47;;;;;;;8.82;1.30;;;;;;;;;;1047961;28;20027;-23
2023/04/15 00:22:18;;;;;;;3.15;1.00;;;;;;;;;;1047949;28;20555;-23
2023/04/15 00:22:48;;;;;;;12.85;1.77;;;;;;;;;;1047336;28;20060;-23
2023/04/15 00:23:19;;;;;;;51.88;3.05;;;;;;;;;;1047284;28;20475;-18
2023/04/15 00:23:52;;;;;;;28.27;1.90;;;;;;;;;;1048058;28;20024;-23
2023/04/15 00:24:23;;;;;;;4.60;2.28;;;;;;;;;;1048150;28;20024;-23
2023/04/15 00:24:53;;;;;;;3.20;1.63;;;;;;;;;;1047974;28;20430;-23
2023/04/15 00:25:24;;;;;;;1.77;1.67;;;;;;;;;;1047935;28;20020;-22
2023/04/15 00:25:54;;;;;;;8.77;2.28;;;;;;;;;;1047578;28;20020;-22
2023/04/15 00:26:24;;;;;;;3.10;2.42;;;;;;;;;;1048003;28;20051;-21
2023/04/15 00:26:55;;;;;;;27.65;3.60;;;;;;;;;;1047564;28;20028;-23
2023/04/15 00:27:25;;;;;;;11.50;1.58;;;;;;;;;;1048818;28;20024;-22
2023/04/15 00:27:56;;;;;;;28.98;3.97;;;;;;;;;;1048048;28;20021;-21
2023/04/15 00:28:27;;;;;;;11.15;3.88;;;;;;;;;;1047687;28;20111;-23
2023/04/15 00:28:57;;;;;;;12.15;3.22;;;;;;;;;;1047283;28;20379;-21
2023/04/15 00:29:28;;;;;;;11.10;1.80;;;;;;;;;;1047499;28;20066;-23
2023/04/15 00:29:59;;;;;;;5.25;1.38;;;;;;;;;;1048074;28;20020;-23
2023/04/15 00:30:30;;;;;;;19.52;6.05;;;;;;;;;;1048060;28;20471;-23
2023/04/15 00:31:00;;;;;;;22.77;3.50;;;;;;;;;;1047968;28;20533;-20
2023/04/15 00:31:31;;;;;;;16.95;2.95;;;;;;;;;;1047672;28;20078;-23
2023/04/15 00:32:01;;;;;;;13.90;2.58;;;;;;;;;;1047419;28;20105;-22
2023/04/15 00:32:33;;;;;;;5.70;2.78;;;;;;;;;;1042918;28;20036;-18
2023/04/15 00:33:03;;;;;;;22.55;1.75;;;;;;;;;;1041581;28;20025;-21
2023/04/15 00:33:35;;;;;;;14.82;4.15;;;;;;;;;;1041584;28;20120;-24
2023/04/15 00:34:06;;;;;;;10.73;0.95;;;;;;;;;;1041648;28;20031;-23
2023/04/15 00:34:36;;;;;;;1.60;1.50;;;;;;;;;;1044631;28;20449;-21
2023/04/15 00:35:07;;;;;;;5.05;2.63;;;;;;;;;;1047363;28;20123;-20
2023/04/15 00:35:38;;;;;;;0.15;0.15;;;;;;;;;;1047148;28;20024;-23
2023/04/15 00:36:10;;;;;;;4.72;1.80;;;;;;;;;;1048174;28;20454;-23
2023/04/15 00:36:40;;;;;;;7.80;2.00;;;;;;;;;;1046858;28;20153;-23
2023/04/15 00:37:11;;;;;;;1.58;1.40;;;;;;;;;;1047959;28;20103;-23
2023/04/15 00:37:41;;;;;;;4.55;3.10;;;;;;;;;;1047644;28;20024;-20
2023/04/15 00:38:12;;;;;;;4.07;2.20;;;;;;;;;;1048140;28;20024;-23
2023/04/15 00:38:42;;;;;;;11.52;2.78;;;;;;;;;;1047867;28;20024;-23
2023/04/15 00:39:13;;;;;;;47.85;4.05;;;;;;;;;;1048755;28;20024;-21
2023/04/15 00:39:44;;;;;;;0.73;0.73;;;;;;;;;;1046746;28;20369;-22
2023/04/15 00:40:16;;;;;;;11.60;2.95;;;;;;;;;;1047679;28;20028;-22
2023/04/15 00:40:47;;;;;;;12.57;2.70;;;;;;;;;;1047392;28;20063;-23
2023/04/15 00:41:18;;;;;;;7.10;1.27;;;;;;;;;;1047346;28;20172;-23
2023/04/15 00:41:48;;;;;;;14.07;2.92;;;;;;;;;;1047530;28;20144;-20
2023/04/15 00:42:20;;;;;;;3.20;2.28;;;;;;;;;;1047943;28;20078;-23
2023/04/15 00:42:51;;;;;;;20.58;3.88;;;;;;;;;;1047891;28;20089;-23
2023/04/15 00:43:21;;;;;;;1.15;0.80;;;;;;;;;;1047571;28;20032;-23
2023/04/15 00:43:53;;;;;;;0.38;0.38;;;;;;;;;;1047306;28;20032;-23
2023/04/15 00:44:23;;;;;;;8.70;2.40;;;;;;;;;;1047343;28;20031;-23
2023/04/15 00:44:54;;;;;;;0.38;0.38;;;;;;;;;;1047850;28;20055;-20
2023/04/15 00:45:25;;;;;;;17.35;1.80;;;;;;;;;;1047868;28;20028;-22
2023/04/15 00:45:57;;;;;;;11.38;3.90;;;;;;;;;;1047895;28;20024;-22
2023/04/15 00:46:30;;;;;;;16.80;3.67;;;;;;;;;;1047652;28;20020;-23
2023/04/15 00:47:01;;;;;;;2.63;2.42;;;;;;;;;;1047282;28;20028;-23
2023/04/15 00:47:32;;;;;;;0.25;0.25;;;;;;;;;;1047101;28;20488;-24
2023/04/15 00:48:04;;;;;;;13.18;4.43;;;;;;;;;;1048348;28;20024;-22
2023/04/15 00:48:34;;;;;;;3.08;0.55;;;;;;;;;;1047834;28;20426;-22
2023/04/15 00:49:05;;;;;;;3.63;2.38;;;;;;;;;;1048060;28;20115;-21
2023/04/15 00:49:36;;;;;;;2.15;1.58;;;;;;;;;;1046738;28;20123;-24
2023/04/15 00:50:07;;;;;;;2.95;1.55;;;;;;;;;;1047917;28;20031;-22
2023/04/15 00:50:37;;;;;;;1.65;1.52;;;;;;;;;;1047950;28;20028;-23
2023/04/15 00:51:08;;;;;;;6.65;1.83;;;;;;;;;;1046965;28;20025;-21
2023/04/15 00:51:39;;;;;;;2.78;1.25;;;;;;;;;;1048064;28;20024;-23
2023/04/15 00:52:10;;;;;;;4.60;0.52;;;;;;;;;;1047749;28;20579;-21
2023/04/15 00:52:40;;;;;;;4.55;2.80;;;;;;;;;;1047904;28;20059;-23
2023/04/15 00:53:11;;;;;;;1.65;1.55;;;;;;;;;;1047310;28;20027;-21
2023/04/15 00:53:42;;;;;;;21.05;1.63;;;;;;;;;;1046686;28;20025;-22
2023/04/15 00:54:13;;;;;;;0.32;0.32;;;;;;;;;;1048101;28;20021;-23
2023/04/15 00:54:43;;;;;;;8.52;1.42;;;;;;;;;;1047907;28;20505;-21
2023/04/15 00:55:14;;;;;;;15.45;0.85;;;;;;;;;;1048505;28;20024;-23
2023/04/15 00:55:44;;;;;;;2.05;1.27;;;;;;;;;;1047501;28;20025;-22
2023/04/15 00:56:14;;;;;;;14.10;2.53;;;;;;;;;;1047376;28;20028;-19
2023/04/15 00:56:45;;;;;;;10.75;1.35;;;;;;;;;;1047454;28;20546;-24
2023/04/15 00:57:16;;;;;;;2.58;2.40;;;;;;;;;;1047036;28;20024;-23
2023/04/15 00:57:47;;;;;;;16.98;1.70;;;;;;;;;;1047819;28;20013;-23
2023/04/15 00:58:18;;;;;;;1.80;1.65;;;;;;;;;;1047752;28;20035;-18
2023/04/15 00:58:48;;;;;;;0.43;0.43;;;;;;;;;;1047278;28;20032;-23
2023/04/15 00:59:20;;;;;;;0.75;0.70;;;;;;;;;;1047337;28;20822;-21
2023/04/15 00:59:51;;;;;;;2.00;0.98;;;;;;;;;;1047835;28;20472;-23
2023/04/15 01:00:22;;;;;;;3.20;0.98;;;;;;;;;;1047799;28;20024;-23
2023/04/15 01:00:53;;;;;;;35.17;6.65;;;;;;;;;;1047812;28;20067;-21
2023/04/15 01:01:25;;;;;;;6.50;1.52;;;;;;;;;;1047893;28;20028;-21
2023/04/15 01:01:56;;;;;;;5.22;1.35;;;;;;;;;;1047737;28;20020;-21
2023/04/15 01:02:26;;;;;;;2.00;0.77;;;;;;;;;;1047948;28;20020;-23
2023/04/15 01:02:57;;;;;;;1.17;0.70;;;;;;;;;;1047835;28;20464;-22
2023/04/15 01:03:28;;;;;;;4.22;1.90;;;;;;;;;;1048029;28;20082;-23
2023/04/15 01:03:59;;;;;;;5.38;1.35;;;;;;;;;;1047985;28;20472;-23
2023/04/15 01:04:30;;;;;;;1.58;1.10;;;;;;;;;;1047629;28;20020;-24
2023/04/15 01:05:01;;;;;;;0.45;0.45;;;;;;;;;;1047208;28;20090;-21
2023/04/15 01:05:32;;;;;;;0.20;0.20;;;;;;;;;;1047416;28;20066;-21
2023/04/15 01:06:03;;;;;;;0.50;0.35;;;;;;;;;;1048036;28;20504;-23
2023/04/15 01:06:33;;;;;;;10.68;0.68;;;;;;;;;;1047848;28;20048;-24
2023/04/15 01:07:04;;;;;;;4.47;1.55;;;;;;;;;;1047676;28;20029;-21
2023/04/15 01:07:34;;;;;;;0.20;0.20;;;;;;;;;;1047988;28;20020;-23
2023/04/15 01:08:05;;;;;;;3.38;2.28;;;;;;;;;;1047344;28;20033;-23
2023/04/15 01:08:35;;;;;;;0.52;0.52;;;;;;;;;;1047091;28;20024;-22
2023/04/15 01:09:06;;;;;;;0.25;0.25;;;;;;;;;;1048145;28;20021;-24
2023/04/15 01:09:36;;;;;;;0.55;0.45;;;;;;;;;;1047763;28;20042;-21
2023/04/15 01:10:07;;;;;;;0.10;0.10;;;;;;;;;;1047667;28;20403;-24
2023/04/15 01:10:38;;;;;;;0.20;0.20;;;;;;;;;;1047897;28;20048;-21
2023/04/15 01:11:09;;;;;;;3.85;1.92;;;;;;;;;;1047251;28;20033;-23
2023/04/15 01:11:40;;;;;;;1.17;0.40;;;;;;;;;;1042691;28;20520;-24
2023/04/15 01:12:14;;;;;;;8.73;1.73;;;;;;;;;;1043398;28;20076;-21
2023/04/15 01:12:44;;;;;;;0.40;0.40;;;;;;;;;;1043287;28;20065;-23
2023/04/15 01:13:15;;;;;;;2.53;1.90;;;;;;;;;;1044211;28;20082;-20
2023/04/15 01:13:46;;;;;;;2.75;1.55;;;;;;;;;;1047542;28;20472;-23
2023/04/15 01:14:16;;;;;;;15.73;1.55;;;;;;;;;;1048013;28;20032;-22
2023/04/15 01:14:47;;;;;;;2.10;1.80;;;;;;;;;;1047731;28;20517;-22
2023/04/15 01:15:17;;;;;;;5.18;1.52;;;;;;;;;;1047460;28;20103;-22
2023/04/15 01:15:53;;;;;;;4.00;1.17;;;;;;;;;;1045382;28;20546;-23
2023/04/15 01:16:24;;;;;;;5.95;1.50;;;;;;;;;;1044626;28;20396;-19
2023/04/15 01:16:55;;;;;;;0.25;0.25;;;;;;;;;;1044758;28;20607;-23
2023/04/15 01:17:25;;;;;;;1.73;1.63;;;;;;;;;;1044897;28;20075;-21
2023/04/15 01:17:59;;;;;;;1.48;1.38;;;;;;;;;;1044604;28;20024;-22
2023/04/15 01:18:30;;;;;;;0.15;0.15;;;;;;;;;;1043935;28;20067;-20
2023/04/15 01:19:00;;;;;;;0.77;0.77;;;;;;;;;;1043303;28;20032;-20
2023/04/15 01:19:31;;;;;;;5.93;2.90;;;;;;;;;;1043754;28;20028;-20
2023/04/15 01:20:02;;;;;;;0.88;0.82;;;;;;;;;;1043745;28;20021;-23
2023/04/15 01:20:33;;;;;;;0.90;0.73;;;;;;;;;;1046272;28;20058;-22
2023/04/15 01:21:04;;;;;;;10.68;1.65;;;;;;;;;;1047241;28;20024;-23
2023/04/15 01:21:38;;;;;;;5.85;1.70;;;;;;;;;;1047563;28;20036;-19
2023/04/15 01:22:09;;;;;;;0.85;0.63;;;;;;;;;;1048039;28;20365;-23
2023/04/15 01:22:39;;;;;;;26.08;2.65;;;;;;;;;;1047197;28;20063;-24
2023/04/15 01:23:10;;;;;;;11.00;2.20;;;;;;;;;;1047788;28;20161;-22
2023/04/15 01:23:42;;;;;;;1.30;1.20;;;;;;;;;;1047179;28;20024;-22
2023/04/15 01:24:15;;;;;;;12.75;2.90;;;;;;;;;;1041877;28;20056;-23
2023/04/15 01:24:51;;;;;;;1.75;1.65;;;;;;;;;;1043846;28;20504;-23
2023/04/15 01:25:31;;;;;;;4.15;1.33;;;;;;;;;;1042071;28;20082;-21
2023/04/15 01:26:02;;;;;;;4.80;2.30;;;;;;;;;;1044895;28;20025;-22
2023/04/15 01:26:33;;;;;;;3.65;2.97;;;;;;;;;;1048395;28;20033;-23
2023/04/15 01:27:04;;;;;;;16.10;2.13;;;;;;;;;;1047535;28;20395;-19
2023/04/15 01:27:37;;;;;;;3.05;1.52;;;;;;;;;;1047102;28;20041;-20
2023/04/15 01:28:08;;;;;;;5.68;1.75;;;;;;;;;;1046308;28;20064;-23
2023/04/15 01:28:39;;;;;;;4.90;3.17;;;;;;;;;;1046698;28;20025;-22
2023/04/15 01:29:09;;;;;;;10.75;2.90;;;;;;;;;;1048009;28;20035;-23
2023/04/15 01:29:40;;;;;;;1.27;1.17;;;;;;;;;;1046700;28;20412;-22
2023/04/15 01:30:11;;;;;;;11.70;3.42;;;;;;;;;;1048648;28;20111;-22
2023/04/15 01:30:42;;;;;;;3.60;1.02;;;;;;;;;;1048501;28;20021;-20
2023/04/15 01:31:13;;;;;;;4.90;0.70;;;;;;;;;;1048290;28;20024;-25
2023/04/15 01:31:53;;;;;;;1.83;1.45;;;;;;;;;;1045781;28;20473;-21
2023/04/15 01:32:24;;;;;;;;;;;;;;;;;;1046462;28;20029;-25
2023/04/15 01:32:54;;;;;;;0.43;0.40;;;;;;;;;;1047590;28;19916;-25
2023/04/15 01:33:26;;;;;;;2.60;1.85;;;;;;;;;;1046484;28;20031;-23
2023/04/15 01:33:57;;;;;;;1.67;0.50;;;;;;;;;;1045603;28;20076;-23
2023/04/15 01:34:28;;;;;;;34.78;2.22;;;;;;;;;;1045659;28;20793;-23
2023/04/15 01:34:58;;;;;;;5.35;1.73;;;;;;;;;;1046366;28;20016;-23
2023/04/15 01:35:31;;;;;;;0.73;0.73;;;;;;;;;;1047386;28;20024;-23
2023/04/15 01:36:09;;;;;;;1.75;1.63;;;;;;;;;;1043432;28;20044;-24
2023/04/15 01:36:40;;;;;;;2.60;1.33;;;;;;;;;;1043521;28;20031;-21
2023/04/15 01:37:10;;;;;;;7.10;1.75;;;;;;;;;;1040308;28;20028;-23
2023/04/15 01:37:41;;;;;;;6.80;2.00;;;;;;;;;;1043388;28;20033;-24
2023/04/15 01:38:12;;;;;;;3.20;2.55;;;;;;;;;;1045876;28;20028;-24
2023/04/15 01:38:42;;;;;;;5.43;1.73;;;;;;;;;;1047207;28;20028;-24
2023/04/15 01:39:13;;;;;;;1.85;1.10;;;;;;;;;;1046621;28;20040;-21
2023/04/15 01:39:44;;;;;;;2.90;1.92;;;;;;;;;;1046195;28;20029;-22
2023/04/15 01:40:15;;;;;;;3.67;0.68;;;;;;;;;;1045359;28;20031;-23
2023/04/15 01:40:45;;;;;;;15.98;1.75;;;;;;;;;;1046899;28;20135;-22
2023/04/15 01:41:18;;;;;;;3.00;0.52;;;;;;;;;;1047467;28;20134;-22
2023/04/15 01:41:48;;;;;;;5.00;2.35;;;;;;;;;;1048000;28;20033;-24
2023/04/15 01:42:20;;;;;;;3.10;2.28;;;;;;;;;;1048338;28;20435;-21
2023/04/15 01:42:51;;;;;;;1.92;1.55;;;;;;;;;;1047788;28;20020;-24
2023/04/15 01:43:21;;;;;;;17.67;2.63;;;;;;;;;;1047513;28;20032;-23
2023/04/15 01:43:52;;;;;;;18.35;1.27;;;;;;;;;;1047541;28;20119;-22
2023/04/15 01:44:23;;;;;;;17.70;2.47;;;;;;;;;;1047606;28;20025;-23
2023/04/15 01:44:53;;;;;;;9.30;2.00;;;;;;;;;;1044158;28;20024;-24
2023/04/15 01:45:24;;;;;;;5.65;0.70;;;;;;;;;;1047648;28;20040;-24
2023/04/15 01:45:55;;;;;;;1.70;0.88;;;;;;;;;;1044963;28;20392;-22
2023/04/15 01:46:26;;;;;;;39.47;4.88;;;;;;;;;;1044989;28;20485;-23
2023/04/15 01:46:57;;;;;;;8.10;1.52;;;;;;;;;;1046805;28;20108;-24
2023/04/15 01:47:27;;;;;;;4.32;1.80;;;;;;;;;;1046245;28;20161;-21
2023/04/15 01:47:58;;;;;;;27.33;1.02;;;;;;;;;;1047368;28;20476;-24
2023/04/15 01:48:28;;;;;;;1.65;1.30;;;;;;;;;;1048095;28;20094;-21
2023/04/15 01:48:59;;;;;;;12.32;1.85;;;;;;;;;;1046061;28;20036;-23
2023/04/15 01:49:30;;;;;;;4.90;1.60;;;;;;;;;;1045898;28;20033;-23
2023/04/15 01:50:00;;;;;;;4.00;2.10;;;;;;;;;;1046908;28;20025;-24
2023/04/15 01:50:31;;;;;;;2.85;2.10;;;;;;;;;;1047247;28;20032;-23
2023/04/15 01:51:02;;;;;;;0.98;0.73;;;;;;;;;;1045418;28;20081;-24
2023/04/15 01:51:33;;;;;;;3.40;2.10;;;;;;;;;;1044669;28;20143;-24
2023/04/15 01:52:03;;;;;;;10.73;2.92;;;;;;;;;;1047785;28;20524;-22
2023/04/15 01:52:34;;;;;;;1.25;0.90;;;;;;;;;;1047118;28;20399;-24
2023/04/15 01:53:04;;;;;;;5.88;1.45;;;;;;;;;;1047665;28;20118;-24
2023/04/15 01:53:35;;;;;;;2.78;2.03;;;;;;;;;;1047428;28;20369;-22
2023/04/15 01:54:05;;;;;;;5.20;2.40;;;;;;;;;;1047514;28;20161;-24
2023/04/15 01:54:36;;;;;;;28.30;3.25;;;;;;;;;;1043099;28;20044;-21
2023/04/15 01:55:07;;;;;;;6.53;3.13;;;;;;;;;;1043642;28;20017;-23
2023/04/15 01:55:38;;;;;;;5.10;2.03;;;;;;;;;;1039529;28;20549;-22
2023/04/15 01:56:08;;;;;;;3.92;1.35;;;;;;;;;;1038669;28;20040;-23
2023/04/15 01:56:39;;;;;;;10.98;2.00;;;;;;;;;;1038605;28;20507;-24
2023/04/15 01:57:11;;;;;;;6.32;2.75;;;;;;;;;;1035537;28;20049;-21
2023/04/15 01:57:41;;;;;;;3.70;2.15;;;;;;;;;;1038304;28;20017;-23
2023/04/15 01:58:12;;;;;;;1.00;1.00;;;;;;;;;;1034602;28;20509;-21
2023/04/15 01:58:42;;;;;;;1.45;1.35;;;;;;;;;;1038666;28;20398;-21
2023/04/15 01:59:13;;;;;;;5.95;2.90;;;;;;;;;;1040998;28;20032;-23
2023/04/15 01:59:43;;;;;;;0.40;0.40;;;;;;;;;;1042107;28;20033;-24
2023/04/15 02:00:14;;;;;;;9.52;4.05;;;;;;;;;;1047803;28;20029;-24
2023/04/15 02:00:44;;;;;;;11.00;0.85;;;;;;;;;;1047662;28;20154;-22
2023/04/15 02:01:15;;;;;;;1.63;1.33;;;;;;;;;;1048059;28;20035;-21
2023/04/15 02:01:46;;;;;;;1.05;0.95;;;;;;;;;;1047245;28;20070;-24
2023/04/15 02:02:16;;;;;;;15.38;3.45;;;;;;;;;;1048545;28;20438;-23
2023/04/15 02:02:47;;;;;;;10.52;2.67;;;;;;;;;;1047426;28;20400;-21
2023/04/15 02:03:18;;;;;;;2.22;0.50;;;;;;;;;;1047004;28;20622;-22
2023/04/15 02:03:48;;;;;;;9.57;2.40;;;;;;;;;;1047866;28;20058;-23
2023/04/15 02:04:18;;;;;;;8.60;2.95;;;;;;;;;;1047985;28;20032;-22
2023/04/15 02:04:49;;;;;;;9.82;1.98;;;;;;;;;;1046992;28;20027;-24
2023/04/15 02:05:19;;;;;;;13.95;4.38;;;;;;;;;;1047178;28;20090;-21
2023/04/15 02:05:50;;;;;;;3.80;1.30;;;;;;;;;;1045670;28;20036;-21
2023/04/15 02:06:20;;;;;;;2.42;0.60;;;;;;;;;;1046122;28;20111;-22
2023/04/15 02:06:51;;;;;;;5.05;1.35;;;;;;;;;;1047496;28;20032;-24
2023/04/15 02:07:22;;;;;;;4.53;2.33;;;;;;;;;;1047634;28;20052;-24
2023/04/15 02:07:53;;;;;;;10.00;3.30;;;;;;;;;;1047342;28;20024;-23
2023/04/15 02:08:23;;;;;;;8.18;1.48;;;;;;;;;;1045814;28;20521;-24
2023/04/15 02:08:54;;;;;;;8.70;2.35;;;;;;;;;;1047255;28;20027;-23
2023/04/15 02:09:25;;;;;;;8.23;0.70;;;;;;;;;;1047411;28;20033;-24
2023/04/15 02:09:56;;;;;;;16.77;3.55;;;;;;;;;;1047604;28;20024;-24
2023/04/15 02:10:26;;;;;;;5.15;2.00;;;;;;;;;;1043465;28;20024;-25
2023/04/15 02:10:57;;;;;;;5.65;2.28;;;;;;;;;;1042735;28;20039;-23
2023/04/15 02:11:27;;;;;;;0.17;0.17;;;;;;;;;;1042498;28;20028;-23
2023/04/15 02:11:59;;;;;;;4.35;1.52;;;;;;;;;;1042786;28;20028;-22
2023/04/15 02:12:30;;;;;;;6.63;0.57;;;;;;;;;;1046301;28;20066;-23
2023/04/15 02:13:00;;;;;;;3.35;1.30;;;;;;;;;;1046114;28;20043;-23
2023/04/15 02:13:31;;;;;;;13.25;4.18;;;;;;;;;;1047054;28;20024;-24
2023/04/15 02:14:01;;;;;;;1.65;0.90;;;;;;;;;;1047957;28;20031;-22
2023/04/15 02:14:32;;;;;;;14.23;1.17;;;;;;;;;;1048301;28;20043;-23
2023/04/15 02:15:02;;;;;;;0.45;0.43;;;;;;;;;;1047130;28;20012;-24
2023/04/15 02:15:33;;;;;;;8.48;1.13;;;;;;;;;;1047226;28;20020;-24
2023/04/15 02:16:03;;;;;;;4.10;3.40;;;;;;;;;;1048322;28;20039;-21
2023/04/15 02:16:34;;;;;;;5.57;2.92;;;;;;;;;;1047159;28;20017;-21
2023/04/15 02:17:07;;;;;;;4.85;2.50;;;;;;;;;;1047427;28;20865;-20
2023/04/15 02:17:38;;;;;;;1.10;1.02;;;;;;;;;;1046720;28;20027;-24
2023/04/15 02:18:08;;;;;;;7.55;2.42;;;;;;;;;;1046838;28;20309;-23
2023/04/15 02:18:39;;;;;;;8.02;2.50;;;;;;;;;;1044520;28;20119;-24
2023/04/15 02:19:10;;;;;;;15.68;2.60;;;;;;;;;;1042338;28;20408;-25
2023/04/15 02:19:41;;;;;;;6.70;1.40;;;;;;;;;;1038380;28;20064;-24
2023/04/15 02:20:11;;;;;;;12.90;1.17;;;;;;;;;;1037735;28;20115;-25
2023/04/15 02:20:45;;;;;;;3.17;1.33;;;;;;;;;;1038073;28;20025;-25
2023/04/15 02:21:17;;;;;;;10.27;1.83;;;;;;;;;;1038451;28;20029;-25
2023/04/15 02:21:48;;;;;;;0.68;0.68;;;;;;;;;;1041802;28;20098;-25
2023/04/15 02:22:18;;;;;;;11.85;0.65;;;;;;;;;;1042468;28;20025;-22
2023/04/15 02:22:49;;;;;;;5.32;1.27;;;;;;;;;;1041369;28;20033;-25
2023/04/15 02:23:19;;;;;;;0.35;0.30;;;;;;;;;;1046727;28;20039;-23
2023/04/15 02:23:51;;;;;;;2.00;1.15;;;;;;;;;;1046321;28;20033;-22
2023/04/15 02:24:21;;;;;;;2.88;2.40;;;;;;;;;;1046106;28;20070;-23
2023/04/15 02:24:52;;;;;;;17.70;0.85;;;;;;;;;;1046913;28;20086;-25
2023/04/15 02:25:22;;;;;;;2.20;2.00;;;;;;;;;;1048057;28;20020;-22
2023/04/15 02:25:53;;;;;;;14.13;1.05;;;;;;;;;;1045716;28;20126;-25
2023/04/15 02:26:24;;;;;;;1.35;1.13;;;;;;;;;;1045979;28;20687;-23
2023/04/15 02:26:57;;;;;;;1.58;1.55;;;;;;;;;;1042858;28;20033;-23
2023/04/15 02:27:29;;;;;;;1.98;1.63;;;;;;;;;;1042632;28;20511;-21
2023/04/15 02:28:00;;;;;;;1.73;1.63;;;;;;;;;;1039298;28;20025;-22
2023/04/15 02:28:30;;;;;;;2.85;1.30;;;;;;;;;;1039747;28;20026;-23
2023/04/15 02:29:01;;;;;;;2.17;1.10;;;;;;;;;;1041577;28;20473;-24
2023/04/15 02:29:32;;;;;;;4.10;2.00;;;;;;;;;;1042363;28;20093;-23
2023/04/15 02:30:02;;;;;;;23.02;1.73;;;;;;;;;;1046730;28;20027;-22
2023/04/15 02:30:33;;;;;;;2.92;0.75;;;;;;;;;;1046447;28;20133;-23
2023/04/15 02:31:07;;;;;;;1.60;1.50;;;;;;;;;;1041720;28;20086;-23
2023/04/15 02:31:39;;;;;;;3.80;2.90;;;;;;;;;;1041943;28;20588;-23
2023/04/15 02:32:10;;;;;;;6.50;3.17;;;;;;;;;;1040489;28;20384;-21
2023/04/15 02:32:43;;;;;;;1.10;0.68;;;;;;;;;;1041838;28;20120;-24
2023/04/15 02:33:14;;;;;;;3.35;0.98;;;;;;;;;;1045173;28;20479;-23
2023/04/15 02:33:45;;;;;;;1.38;1.00;;;;;;;;;;1045790;28;20122;-22
2023/04/15 02:34:15;;;;;;;7.85;2.38;;;;;;;;;;1047068;28;20054;-21
2023/04/15 02:34:46;;;;;;;2.85;0.95;;;;;;;;;;1047427;28;20443;-24
2023/04/15 02:35:18;;;;;;;3.83;0.43;;;;;;;;;;1041782;28;20072;-24
2023/04/15 02:35:49;;;;;;;6.22;2.22;;;;;;;;;;1040964;28;20033;-23
2023/04/15 02:36:20;;;;;;;0.93;0.90;;;;;;;;;;1042432;28;20041;-21
2023/04/15 02:36:53;;;;;;;0.55;0.55;;;;;;;;;;1035739;28;20028;-23
2023/04/15 02:37:26;;;;;;;8.40;2.40;;;;;;;;;;1038096;28;20072;-22
2023/04/15 02:37:57;;;;;;;1.25;1.08;;;;;;;;;;1038202;28;20030;-21
2023/04/15 02:38:27;;;;;;;7.43;1.58;;;;;;;;;;1040847;28;20109;-23
2023/04/15 02:38:58;;;;;;;1.52;1.42;;;;;;;;;;1046784;28;20379;-19
2023/04/15 02:39:29;;;;;;;0.52;0.52;;;;;;;;;;1047645;28;20471;-22
2023/04/15 02:40:00;;;;;;;2.85;2.03;;;;;;;;;;1046893;28;20039;-23
2023/04/15 02:40:31;;;;;;;4.95;1.73;;;;;;;;;;1045484;28;20036;-23
2023/04/15 02:41:02;;;;;;;1.75;0.85;;;;;;;;;;1039551;28;20029;-24
2023/04/15 02:41:33;;;;;;;6.50;3.05;;;;;;;;;;1040308;28;20029;-22
2023/04/15 02:42:04;;;;;;;1.70;0.98;;;;;;;;;;1039478;28;20127;-24
2023/04/15 02:42:35;;;;;;;0.85;0.85;;;;;;;;;;1040223;28;20478;-21
2023/04/15 02:43:06;;;;;;;6.15;2.55;;;;;;;;;;1040349;28;20754;-24
2023/04/15 02:43:38;;;;;;;1.67;1.58;;;;;;;;;;1041883;28;20115;-20
2023/04/15 02:44:11;;;;;;;2.45;1.42;;;;;;;;;;1046960;28;20029;-22
2023/04/15 02:44:42;;;;;;;5.10;1.83;;;;;;;;;;1045663;28;20115;-18
2023/04/15 02:45:13;;;;;;;2.33;0.68;;;;;;;;;;1042027;28;20496;-21
2023/04/15 02:45:45;;;;;;;0.98;0.88;;;;;;;;;;1043305;28;20056;-23
2023/04/15 02:46:15;;;;;;;3.40;0.88;;;;;;;;;;1038560;28;20063;-23
2023/04/15 02:46:49;;;;;;;2.25;1.00;;;;;;;;;;1037782;28;20021;-21
2023/04/15 02:47:20;;;;;;;11.43;2.63;;;;;;;;;;1041728;28;20411;-23
2023/04/15 02:47:50;;;;;;;8.65;4.18;;;;;;;;;;1043556;28;20027;-22
2023/04/15 02:48:21;;;;;;;3.17;2.15;;;;;;;;;;1046735;28;20480;-21
2023/04/15 02:48:52;;;;;;;3.65;1.65;;;;;;;;;;1042240;28;20028;-22
2023/04/15 02:49:24;;;;;;;11.05;3.10;;;;;;;;;;1040168;28;20563;-23
2023/04/15 02:49:54;;;;;;;12.50;1.00;;;;;;;;;;1042175;28;20024;-21
2023/04/15 02:50:26;;;;;;;3.15;1.27;;;;;;;;;;1042894;28;20056;-23
2023/04/15 02:51:18;;;;;;;2.20;1.48;;;;;;;;;;1043113;28;20351;-22
2023/04/15 02:51:50;;;;;;;29.40;2.70;;;;;;;;;;1046422;28;20492;-20
2023/04/15 02:52:21;;;;;;;3.80;1.17;;;;;;;;;;1047370;28;20032;-23
2023/04/15 02:52:52;;;;;;;11.60;1.63;;;;;;;;;;1046157;28;20024;-19
2023/04/15 02:53:22;;;;;;;13.05;2.15;;;;;;;;;;1046883;28;20020;-22
2023/04/15 02:53:53;;;;;;;13.50;2.97;;;;;;;;;;1046455;28;20059;-22
2023/04/15 02:54:27;;;;;;;3.30;1.10;;;;;;;;;;1046906;28;20074;-23
2023/04/15 02:55:01;;;;;;;2.08;0.90;;;;;;;;;;1045742;28;20151;-22
2023/04/15 02:55:31;;;;;;;1.13;1.00;;;;;;;;;;1045090;28;20028;-22
2023/04/15 02:56:02;;;;;;;9.02;3.40;;;;;;;;;;1047880;28;21279;-22
2023/04/15 02:56:38;;;;;;;6.60;2.38;;;;;;;;;;1046661;28;20075;-23
2023/04/15 02:57:11;;;;;;;6.47;2.65;;;;;;;;;;1039996;28;20036;-24
2023/04/15 02:57:43;;;;;;;0.80;0.73;;;;;;;;;;1039279;28;20029;-23
2023/04/15 02:58:14;;;;;;;1.52;1.35;;;;;;;;;;1039394;28;20446;-21
2023/04/15 02:58:45;;;;;;;2.58;1.40;;;;;;;;;;1039733;28;20111;-22
2023/04/15 02:59:17;;;;;;;18.45;1.77;;;;;;;;;;1038929;28;20016;-23
2023/04/15 02:59:49;;;;;;;13.90;3.35;;;;;;;;;;1033374;28;20025;-24
2023/04/15 03:00:24;;;;;;;17.05;2.00;;;;;;;;;;1042649;28;20581;-22
2023/04/15 03:01:01;;;;;;;5.60;0.80;;;;;;;;;;1033536;28;20418;-24
2023/04/15 03:01:32;;;;;;;1.30;1.00;;;;;;;;;;1039540;28;20503;-23
2023/04/15 03:02:03;;;;;;;3.05;0.95;;;;;;;;;;1043674;28;20078;-24
2023/04/15 03:02:34;;;;;;;0.95;0.70;;;;;;;;;;1039488;28;20027;-22
2023/04/15 03:03:05;;;;;;;2.28;1.27;;;;;;;;;;1043333;28;20017;-24
2023/04/15 03:03:37;;;;;;;28.00;1.95;;;;;;;;;;1042995;28;20663;-25
2023/04/15 03:04:07;;;;;;;7.38;2.83;;;;;;;;;;1042895;28;20032;-23
2023/04/15 03:04:38;;;;;;;6.47;1.90;;;;;;;;;;1042419;28;20025;-25
2023/04/15 03:05:13;;;;;;;4.70;1.38;;;;;;;;;;1042800;28;20033;-22
2023/04/15 03:05:47;;;;;;;13.50;1.95;;;;;;;;;;1038943;28;20033;-22
2023/04/15 03:06:18;;;;;;;11.95;0.98;;;;;;;;;;1039319;28;20505;-27